Terminal Aerodrome Forecast
Issued by NWS

Current Version | Previous Version | Text Only | Print | Product List | Glossary Off
Versions: 1 2 3 4 5 6 7 8 9 10 11 12 13 14

215
FTUS41 KPBZ 241722
TAFHLG
TAF
KHLG 241722Z 2418/2518 24010G18KT P6SM SCT045
     FM250100 27005KT P6SM SCT250=

USA.gov is the U.S. government's official web portal to all federal, state and local government web resources and services.